createdAt,value
2023-09-03T00:00:54.303Z,99372.38
2023-09-03T00:03:20.563Z,99374.22
2023-09-03T00:05:46.764Z,99376.72
2023-09-03T00:08:13.435Z,99373.19
2023-09-03T00:10:39.562Z,99368.66
2023-09-03T00:13:05.709Z,99377.75
2023-09-03T00:15:31.879Z,99360.78
2023-09-03T00:17:58.035Z,99362.47
2023-09-03T00:20:24.193Z,99367.00
2023-09-03T00:22:50.349Z,99364.31
2023-09-03T00:25:16.485Z,99374.22
2023-09-03T00:27:42.637Z,99368.84
2023-09-03T00:30:08.796Z,99367.19
2023-09-03T00:32:34.979Z,99376.06
2023-09-03T00:35:01.193Z,99366.16
2023-09-03T00:37:27.985Z,99362.88
2023-09-03T00:39:57.024Z,99371.75
2023-09-03T00:42:23.172Z,99371.75
2023-09-03T00:44:49.340Z,99373.63
2023-09-03T00:47:15.492Z,99377.13
2023-09-03T00:49:41.623Z,99382.50
2023-09-03T00:52:07.800Z,99380.81
2023-09-03T00:54:33.941Z,99370.06
2023-09-03T00:57:00.069Z,99372.75
2023-09-03T00:59:26.232Z,99367.38
2023-09-03T01:01:52.425Z,99377.31
2023-09-03T01:04:18.636Z,99389.91
2023-09-03T01:06:44.925Z,99406.84
2023-09-03T01:09:11.098Z,99409.53
2023-09-03T01:11:37.302Z,99409.53
2023-09-03T01:14:03.465Z,99400.66
2023-09-03T01:16:29.621Z,99399.63
2023-09-03T01:18:55.769Z,99398.81
2023-09-03T01:21:21.926Z,99405.22
2023-09-03T01:23:48.073Z,99398.81
2023-09-03T01:26:18.026Z,99398.81
2023-09-03T01:28:44.274Z,99405.00
2023-09-03T01:31:10.487Z,99402.53
2023-09-03T01:33:36.669Z,99399.84
2023-09-03T01:36:02.828Z,99399.00
2023-09-03T01:38:28.972Z,99401.69
2023-09-03T01:40:55.109Z,99393.63
2023-09-03T01:43:21.286Z,99395.47
2023-09-03T01:45:47.496Z,99401.69
2023-09-03T01:48:13.635Z,99408.91
2023-09-03T01:50:39.825Z,99400.84
2023-09-03T01:53:05.958Z,99399.00
2023-09-03T01:55:32.094Z,99407.91
2023-09-03T01:57:58.230Z,99422.34
2023-09-03T02:00:24.383Z,99418.84
2023-09-03T02:02:52.914Z,99405.41
2023-09-03T02:05:24.769Z,99399.22
2023-09-03T02:07:51.193Z,99403.75
2023-09-03T02:10:17.346Z,99400.22
2023-09-03T02:12:43.989Z,99410.13
2023-09-03T02:15:12.365Z,99417.19
2023-09-03T02:17:40.021Z,99408.28
2023-09-03T02:20:06.525Z,99406.63
2023-09-03T02:22:32.929Z,99410.13
2023-09-03T02:24:59.100Z,99405.81
2023-09-03T02:27:25.277Z,99407.69
2023-09-03T02:29:51.422Z,99412.00
2023-09-03T02:32:17.551Z,99416.56
2023-09-03T02:34:43.695Z,99424.63
2023-09-03T02:37:09.850Z,99424.41
2023-09-03T02:39:36.038Z,99412.81
2023-09-03T02:42:02.249Z,99415.50
2023-09-03T02:44:28.404Z,99418.41
2023-09-03T02:46:54.534Z,99410.38
2023-09-03T02:49:20.699Z,99415.72
2023-09-03T02:51:46.835Z,99426.47
2023-09-03T02:54:12.975Z,99433.69
2023-09-03T02:56:39.137Z,99430.19
2023-09-03T02:59:05.309Z,99419.44
2023-09-03T03:01:31.562Z,99424.81
2023-09-03T03:03:57.794Z,99418.59
2023-09-03T03:06:23.934Z,99409.50
2023-09-03T03:08:50.100Z,99391.75
2023-09-03T03:11:16.735Z,99401.44
2023-09-03T03:13:42.896Z,99405.00
2023-09-03T03:16:09.116Z,99394.25
2023-09-03T03:18:35.775Z,99393.41
2023-09-03T03:21:01.916Z,99394.25
2023-09-03T03:23:28.108Z,99388.88
2023-09-03T03:25:54.268Z,99376.47
2023-09-03T03:28:20.592Z,99378.31
2023-09-03T03:30:46.825Z,99376.47
2023-09-03T03:33:13.016Z,99374.81
2023-09-03T03:35:39.211Z,99368.59
2023-09-03T03:38:05.381Z,99358.06
2023-09-03T03:40:31.560Z,99370.69
2023-09-03T03:42:57.695Z,99374.19
2023-09-03T03:45:23.865Z,99376.88
2023-09-03T03:47:50.163Z,99382.25
2023-09-03T03:50:16.385Z,99386.78
2023-09-03T03:52:42.628Z,99391.13
2023-09-03T03:55:08.838Z,99390.28
2023-09-03T03:57:34.972Z,99390.28
2023-09-03T04:00:01.233Z,99394.00
2023-09-03T04:02:27.608Z,99392.34
2023-09-03T04:04:53.835Z,99398.53
2023-09-03T04:07:20.038Z,99403.91
2023-09-03T04:09:46.195Z,99407.41
2023-09-03T04:12:12.337Z,99414.47
2023-09-03T04:14:38.478Z,99420.84
2023-09-03T04:17:04.691Z,99419.84
2023-09-03T04:19:30.850Z,99428.09
2023-09-03T04:21:56.997Z,99436.97
2023-09-03T04:24:23.168Z,99438.00
2023-09-03T04:26:49.321Z,99453.28
2023-09-03T04:29:15.458Z,99463.22
2023-09-03T04:31:41.605Z,99468.59
2023-09-03T04:34:07.761Z,99469.41
2023-09-03T04:36:33.925Z,99473.97
2023-09-03T04:39:00.106Z,99478.69
2023-09-03T04:41:26.280Z,99475.78
2023-09-03T04:43:52.415Z,99476.84
2023-09-03T04:46:18.585Z,99467.94
2023-09-03T04:48:44.738Z,99470.41
2023-09-03T04:51:10.905Z,99473.09
2023-09-03T04:53:37.069Z,99475.78
2023-09-03T04:56:03.214Z,99476.84
2023-09-03T04:58:29.381Z,99469.81
2023-09-03T05:00:55.544Z,99462.59
2023-09-03T05:03:21.811Z,99470.63
2023-09-03T05:05:48.065Z,99465.25
2023-09-03T05:08:14.221Z,99465.25
2023-09-03T05:10:40.363Z,99469.81
2023-09-03T05:13:06.545Z,99464.44
2023-09-03T05:15:34.376Z,99469.81
2023-09-03T05:18:01.258Z,99475.19
2023-09-03T05:20:27.514Z,99476.00
2023-09-03T05:22:53.793Z,99486.75
2023-09-03T05:25:19.948Z,99491.06
2023-09-03T05:27:46.104Z,99498.31
2023-09-03T05:30:12.256Z,99504.50
2023-09-03T05:32:38.453Z,99509.06
2023-09-03T05:35:04.635Z,99508.22
2023-09-03T05:37:30.814Z,99503.88
2023-09-03T05:39:56.988Z,99513.59
2023-09-03T05:42:23.154Z,99512.78
2023-09-03T05:44:49.308Z,99506.56
2023-09-03T05:47:15.452Z,99502.22
2023-09-03T05:49:41.598Z,99500.38
2023-09-03T05:52:07.882Z,99518.16
2023-09-03T05:54:34.033Z,99523.53
2023-09-03T05:57:00.167Z,99520.19
2023-09-03T05:59:26.322Z,99522.66
2023-09-03T06:01:52.456Z,99530.09
2023-09-03T06:04:18.644Z,99537.13
2023-09-03T06:06:44.809Z,99546.19
2023-09-03T06:09:10.959Z,99551.56
2023-09-03T06:11:37.164Z,99557.78
2023-09-03T06:14:03.376Z,99559.63
2023-09-03T06:16:32.309Z,99557.97
2023-09-03T06:19:00.676Z,99567.69
2023-09-03T06:21:27.922Z,99567.69
2023-09-03T06:23:54.546Z,99567.69
2023-09-03T06:26:20.785Z,99578.41
2023-09-03T06:28:47.663Z,99584.84
2023-09-03T06:31:14.341Z,99599.09
2023-09-03T06:33:40.685Z,99593.72
2023-09-03T06:36:06.867Z,99590.19
2023-09-03T06:38:33.005Z,99591.25
2023-09-03T06:40:59.147Z,99598.25
2023-09-03T06:43:27.922Z,99600.13
2023-09-03T06:45:54.102Z,99592.06
2023-09-03T06:48:20.529Z,99598.25
2023-09-03T06:50:46.878Z,99596.63
2023-09-03T06:53:13.027Z,99595.75
2023-09-03T06:55:39.188Z,99600.31
2023-09-03T06:58:05.829Z,99614.56
2023-09-03T07:00:34.691Z,99620.97
2023-09-03T07:03:03.911Z,99627.97
2023-09-03T07:05:30.154Z,99636.03
2023-09-03T07:07:56.466Z,99626.34
2023-09-03T07:10:22.689Z,99627.16
2023-09-03T07:12:48.867Z,99637.06
2023-09-03T07:15:15.029Z,99632.53
2023-09-03T07:17:41.236Z,99634.38
2023-09-03T07:20:07.435Z,99642.44
2023-09-03T07:22:33.587Z,99645.13
2023-09-03T07:24:59.734Z,99644.31
2023-09-03T07:27:26.399Z,99652.38
2023-09-03T07:29:52.559Z,99644.31
2023-09-03T07:32:18.716Z,99651.53
2023-09-03T07:34:44.870Z,99656.03
2023-09-03T07:37:11.499Z,99662.28
2023-09-03T07:39:37.637Z,99664.06
2023-09-03T07:42:03.786Z,99680.19
2023-09-03T07:44:29.924Z,99677.50
2023-09-03T07:46:56.083Z,99681.06
2023-09-03T07:49:22.243Z,99681.06
2023-09-03T07:51:48.380Z,99676.53
2023-09-03T07:54:14.522Z,99669.44
2023-09-03T07:56:40.705Z,99667.66
2023-09-03T07:59:06.861Z,99663.25
2023-09-03T08:01:33.034Z,99669.44
2023-09-03T08:03:59.276Z,99668.63
2023-09-03T08:06:25.476Z,99671.16
2023-09-03T08:08:51.609Z,99665.94
2023-09-03T08:11:20.529Z,99663.09
2023-09-03T08:13:46.704Z,99675.84
2023-09-03T08:16:12.842Z,99667.81
2023-09-03T08:18:39.060Z,99680.19
2023-09-03T08:21:05.225Z,99680.19
2023-09-03T08:23:31.362Z,99678.38
2023-09-03T08:25:57.527Z,99671.31
2023-09-03T08:28:23.665Z,99668.47
2023-09-03T08:30:49.798Z,99658.72
2023-09-03T08:33:15.980Z,99667.66
2023-09-03T08:35:42.129Z,99674.66
2023-09-03T08:38:08.268Z,99662.88
2023-09-03T08:40:34.469Z,99657.53
2023-09-03T08:43:00.635Z,99661.88
2023-09-03T08:45:26.804Z,99659.19
2023-09-03T08:47:53.009Z,99649.28
2023-09-03T08:50:19.154Z,99647.63
2023-09-03T08:52:45.290Z,99653.00
2023-09-03T08:55:11.451Z,99653.00
2023-09-03T08:57:37.603Z,99658.38
2023-09-03T09:00:03.768Z,99660.84
2023-09-03T09:02:30.527Z,99666.22
2023-09-03T09:04:56.696Z,99660.84
2023-09-03T09:07:22.835Z,99661.88
2023-09-03T09:09:49.004Z,99666.22
2023-09-03T09:12:15.132Z,99658.97
2023-09-03T09:14:41.260Z,99656.31
2023-09-03T09:17:08.784Z,99670.75
2023-09-03T09:19:36.017Z,99683.16
2023-09-03T09:22:02.144Z,99680.47
2023-09-03T09:24:28.299Z,99689.38
2023-09-03T09:26:54.472Z,99684.84
2023-09-03T09:29:20.610Z,99687.53
2023-09-03T09:31:47.262Z,99697.44
2023-09-03T09:34:13.396Z,99700.13
2023-09-03T09:36:39.603Z,99700.94
2023-09-03T09:39:05.776Z,99689.16
2023-09-03T09:41:31.966Z,99683.78
2023-09-03T09:43:58.098Z,99686.47
2023-09-03T09:46:24.278Z,99681.09
2023-09-03T09:48:50.424Z,99701.59
2023-09-03T09:51:16.552Z,99699.91
2023-09-03T09:53:42.751Z,99681.09
2023-09-03T09:56:08.908Z,99679.28
2023-09-03T09:58:35.075Z,99680.28
2023-09-03T10:01:02.581Z,99680.94
2023-09-03T10:03:28.897Z,99678.25
2023-09-03T10:05:55.101Z,99688.81
2023-09-03T10:08:21.686Z,99688.81
2023-09-03T10:10:47.822Z,99690.63
2023-09-03T10:13:13.974Z,99694.19
2023-09-03T10:15:40.118Z,99688.81
2023-09-03T10:18:06.303Z,99696.66
2023-09-03T10:20:32.498Z,99692.31
2023-09-03T10:23:00.271Z,99706.56
2023-09-03T10:25:28.323Z,99692.09
2023-09-03T10:27:54.457Z,99689.63
2023-09-03T10:30:20.616Z,99687.75
2023-09-03T10:32:46.826Z,99684.03
2023-09-03T10:35:13.013Z,99685.72
2023-09-03T10:37:39.717Z,99692.97
2023-09-03T10:40:05.851Z,99689.22
2023-09-03T10:42:31.998Z,99696.25
2023-09-03T10:44:58.151Z,99690.88
2023-09-03T10:47:24.323Z,99697.94
2023-09-03T10:49:50.507Z,99694.41
2023-09-03T10:52:16.725Z,99697.94
2023-09-03T10:54:42.926Z,99696.06
2023-09-03T10:57:09.054Z,99686.16
2023-09-03T10:59:35.214Z,99681.63
2023-09-03T11:02:01.350Z,99683.47
2023-09-03T11:04:27.501Z,99684.94
2023-09-03T11:06:53.692Z,99690.31
2023-09-03T11:09:19.828Z,99687.63
2023-09-03T11:11:45.978Z,99676.88
2023-09-03T11:14:12.170Z,99683.09
2023-09-03T11:16:38.317Z,99690.13
2023-09-03T11:19:04.457Z,99682.69
2023-09-03T11:21:30.738Z,99674.84
2023-09-03T11:23:57.012Z,99665.75
2023-09-03T11:26:23.166Z,99673.81
2023-09-03T11:28:49.318Z,99662.03
2023-09-03T11:31:15.517Z,99677.97
2023-09-03T11:33:41.728Z,99674.47
2023-09-03T11:36:07.928Z,99684.16
2023-09-03T11:38:34.607Z,99675.28
2023-09-03T11:41:01.006Z,99685.00
2023-09-03T11:43:27.237Z,99671.56
2023-09-03T11:45:53.469Z,99674.06
2023-09-03T11:48:19.602Z,99679.44
2023-09-03T11:50:45.756Z,99677.56
2023-09-03T11:53:11.896Z,99682.94
2023-09-03T11:55:38.045Z,99685.44
2023-09-03T11:58:04.216Z,99690.59
2023-09-03T12:00:30.369Z,99682.56
2023-09-03T12:02:56.617Z,99692.28
2023-09-03T12:05:22.848Z,99685.06
2023-09-03T12:07:48.983Z,99674.31
2023-09-03T12:10:15.153Z,99681.31
2023-09-03T12:12:41.430Z,99680.31
2023-09-03T12:15:07.584Z,99689.19
2023-09-03T12:17:33.775Z,99686.53
2023-09-03T12:20:00.102Z,99681.97
2023-09-03T12:22:26.264Z,99685.47
2023-09-03T12:24:52.418Z,99685.28
2023-09-03T12:27:18.592Z,99675.59
2023-09-03T12:29:51.582Z,99679.91
2023-09-03T12:32:18.671Z,99683.44
2023-09-03T12:34:44.867Z,99677.06
2023-09-03T12:37:11.010Z,99688.63
2023-09-03T12:39:37.142Z,99683.25
2023-09-03T12:42:03.447Z,99692.97
2023-09-03T12:44:29.595Z,99680.38
2023-09-03T12:46:55.745Z,99692.78
2023-09-03T12:49:21.907Z,99702.47
2023-09-03T12:51:48.050Z,99695.28
2023-09-03T12:54:14.200Z,99694.41
2023-09-03T12:56:45.829Z,99696.09
2023-09-03T12:59:14.339Z,99692.59
2023-09-03T13:01:40.993Z,99695.06
2023-09-03T13:04:07.256Z,99694.06
2023-09-03T13:06:33.430Z,99694.88
2023-09-03T13:08:59.570Z,99689.50
2023-09-03T13:11:25.759Z,99700.06
2023-09-03T13:13:51.924Z,99697.38
2023-09-03T13:16:18.110Z,99694.47
2023-09-03T13:18:44.379Z,99691.78
2023-09-03T13:21:10.532Z,99684.56
2023-09-03T13:23:36.703Z,99687.25
2023-09-03T13:26:02.884Z,99685.41
2023-09-03T13:28:29.042Z,99688.91
2023-09-03T13:31:06.570Z,99687.06
2023-09-03T13:33:33.755Z,99691.38
2023-09-03T13:35:59.899Z,99691.22
2023-09-03T13:38:26.090Z,99689.56
2023-09-03T13:40:52.258Z,99688.50
2023-09-03T13:43:20.946Z,99679.63
2023-09-03T13:45:48.979Z,99694.53
2023-09-03T13:48:16.226Z,99687.50
2023-09-03T13:50:42.390Z,99691.84
2023-09-03T13:53:08.540Z,99688.13
2023-09-03T13:55:34.698Z,99688.13
2023-09-03T13:58:00.827Z,99680.91
2023-09-03T14:00:26.968Z,99688.75
2023-09-03T14:02:53.239Z,99683.38
2023-09-03T14:05:19.516Z,99681.50
2023-09-03T14:07:45.655Z,99685.06
2023-09-03T14:10:14.258Z,99679.69
2023-09-03T14:12:40.479Z,99672.44
2023-09-03T14:15:06.631Z,99676.59
2023-09-03T14:17:32.865Z,99676.59
2023-09-03T14:19:59.037Z,99676.59
2023-09-03T14:22:25.179Z,99668.34
2023-09-03T14:24:51.461Z,99672.03
2023-09-03T14:27:21.290Z,99665.66
2023-09-03T14:29:47.657Z,99667.31
2023-09-03T14:32:13.870Z,99668.34
2023-09-03T14:34:39.999Z,99679.69
2023-09-03T14:37:06.147Z,99672.50
2023-09-03T14:39:32.306Z,99679.69
2023-09-03T14:41:58.457Z,99683.03
2023-09-03T14:44:24.611Z,99679.31
2023-09-03T14:46:50.900Z,99679.31
2023-09-03T14:49:17.082Z,99677.47
2023-09-03T14:51:43.230Z,99670.22
2023-09-03T14:54:09.399Z,99674.59
2023-09-03T14:56:35.524Z,99671.91
2023-09-03T14:59:01.712Z,99678.94
2023-09-03T15:01:28.007Z,99675.19
2023-09-03T15:03:54.292Z,99682.25
2023-09-03T15:06:20.478Z,99676.06
2023-09-03T15:08:46.631Z,99669.63
2023-09-03T15:11:12.784Z,99668.81
2023-09-03T15:13:38.926Z,99675.84
2023-09-03T15:16:05.120Z,99673.97
2023-09-03T15:18:31.269Z,99682.03
2023-09-03T15:20:57.435Z,99681.84
2023-09-03T15:23:23.704Z,99679.97
2023-09-03T15:25:49.854Z,99684.34
2023-09-03T15:28:16.005Z,99682.47
2023-09-03T15:30:42.159Z,99683.53
2023-09-03T15:33:08.365Z,99682.47
2023-09-03T15:35:34.537Z,99681.44
2023-09-03T15:38:00.690Z,99683.13
2023-09-03T15:40:26.830Z,99690.38
2023-09-03T15:42:53.093Z,99688.28
2023-09-03T15:45:19.410Z,99690.97
2023-09-03T15:47:45.568Z,99694.50
2023-09-03T15:50:11.739Z,99703.41
2023-09-03T15:52:37.890Z,99704.22
2023-09-03T15:55:04.032Z,99690.78
2023-09-03T15:57:30.169Z,99694.09
2023-09-03T15:59:56.391Z,99694.09
2023-09-03T16:02:22.576Z,99683.34
2023-09-03T16:04:48.735Z,99674.25
2023-09-03T16:07:14.898Z,99676.94
2023-09-03T16:09:43.698Z,99682.31
2023-09-03T16:12:10.922Z,99678.63
2023-09-03T16:14:37.085Z,99675.91
2023-09-03T16:17:06.023Z,99679.44
2023-09-03T16:19:39.272Z,99681.06
2023-09-03T16:22:08.551Z,99689.00
2023-09-03T16:24:34.688Z,99693.31
2023-09-03T16:27:00.882Z,99689.81
2023-09-03T16:29:27.052Z,99690.63
2023-09-03T16:31:53.233Z,99689.63
2023-09-03T16:34:19.379Z,99693.13
2023-09-03T16:36:45.563Z,99693.97
2023-09-03T16:39:14.937Z,99695.00
2023-09-03T16:41:41.194Z,99690.25
2023-09-03T16:44:07.419Z,99694.59
2023-09-03T16:46:33.620Z,99697.28
2023-09-03T16:48:59.833Z,99685.72
2023-09-03T16:51:25.995Z,99681.16
2023-09-03T16:53:52.131Z,99675.78
2023-09-03T16:56:18.300Z,99682.84
2023-09-03T16:58:44.675Z,99705.16
2023-09-03T17:01:11.039Z,99703.13
2023-09-03T17:03:37.275Z,99692.34
2023-09-03T17:06:03.460Z,99695.88
2023-09-03T17:08:29.651Z,99703.94
2023-09-03T17:10:55.802Z,99700.22
2023-09-03T17:13:22.387Z,99693.00
2023-09-03T17:15:48.711Z,99689.44
2023-09-03T17:18:14.907Z,99696.50
2023-09-03T17:20:41.071Z,99691.13
2023-09-03T17:23:08.264Z,99705.41
2023-09-03T17:25:34.463Z,99698.16
2023-09-03T17:28:00.655Z,99689.06
2023-09-03T17:30:26.902Z,99700.84
2023-09-03T17:32:53.108Z,99701.47
2023-09-03T17:35:19.781Z,99691.75
2023-09-03T17:37:45.914Z,99697.97
2023-09-03T17:40:12.066Z,99689.91
2023-09-03T17:42:38.237Z,99689.06
2023-09-03T17:45:04.467Z,99692.59
2023-09-03T17:47:30.618Z,99691.53
2023-09-03T17:49:56.885Z,99691.53
2023-09-03T17:52:23.034Z,99696.09
2023-09-03T17:54:49.174Z,99687.00
2023-09-03T17:57:15.332Z,99691.34
2023-09-03T17:59:41.480Z,99676.22
2023-09-03T18:02:07.636Z,99678.91
2023-09-03T18:04:33.818Z,99687.84
2023-09-03T18:06:59.958Z,99681.59
2023-09-03T18:09:26.093Z,99688.66
2023-09-03T18:11:52.299Z,99688.66
2023-09-03T18:14:18.432Z,99685.97
2023-09-03T18:16:44.557Z,99691.34
2023-09-03T18:19:14.088Z,99686.81
2023-09-03T18:21:40.576Z,99685.78
2023-09-03T18:24:06.792Z,99688.66
2023-09-03T18:26:32.991Z,99683.09
2023-09-03T18:28:59.126Z,99684.09
2023-09-03T18:31:25.311Z,99679.56
2023-09-03T18:33:51.515Z,99689.31
2023-09-03T18:36:17.652Z,99696.53
2023-09-03T18:38:43.862Z,99695.69
2023-09-03T18:41:10.053Z,99702.13
2023-09-03T18:43:36.252Z,99701.72
2023-09-03T18:46:02.391Z,99709.78
2023-09-03T18:48:28.560Z,99707.09
2023-09-03T18:50:54.695Z,99699.84
2023-09-03T18:53:21.094Z,99706.06
2023-09-03T18:55:48.487Z,99711.47
2023-09-03T18:58:14.671Z,99700.69
2023-09-03T19:00:40.887Z,99701.72
2023-09-03T19:03:07.900Z,99707.91
2023-09-03T19:05:45.766Z,99702.75
2023-09-03T19:08:13.205Z,99706.25
2023-09-03T19:10:39.359Z,99706.25
2023-09-03T19:13:05.516Z,99708.13
2023-09-03T19:15:31.711Z,99709.78
2023-09-03T19:17:57.874Z,99708.94
2023-09-03T19:20:24.055Z,99708.94
2023-09-03T19:22:50.234Z,99712.47
2023-09-03T19:25:16.382Z,99711.66
2023-09-03T19:27:42.548Z,99714.34
2023-09-03T19:30:08.732Z,99722.41
2023-09-03T19:32:34.938Z,99725.09
2023-09-03T19:35:01.140Z,99733.16
2023-09-03T19:37:27.302Z,99729.66
2023-09-03T19:39:53.488Z,99723.44
2023-09-03T19:42:19.656Z,99714.53
2023-09-03T19:44:46.179Z,99719.91
2023-09-03T19:47:12.461Z,99719.91
2023-09-03T19:49:38.913Z,99715.56
2023-09-03T19:52:05.164Z,99715.56
2023-09-03T19:54:31.299Z,99711.00
2023-09-03T19:56:57.442Z,99703.97
2023-09-03T19:59:23.590Z,99710.19
2023-09-03T20:01:49.866Z,99703.13
2023-09-03T20:04:16.148Z,99704.16
2023-09-03T20:06:42.320Z,99702.31
2023-09-03T20:09:08.470Z,99691.53
2023-09-03T20:11:34.747Z,99696.09
2023-09-03T20:14:00.955Z,99694.47
2023-09-03T20:16:27.207Z,99693.59
2023-09-03T20:18:53.382Z,99692.59
2023-09-03T20:21:19.530Z,99689.06
2023-09-03T20:23:45.657Z,99686.38
2023-09-03T20:26:12.446Z,99688.22
2023-09-03T20:28:46.524Z,99686.56
2023-09-03T20:31:14.092Z,99686.56
2023-09-03T20:33:40.359Z,99682.03
2023-09-03T20:36:06.642Z,99682.03
2023-09-03T20:38:32.895Z,99681.19
2023-09-03T20:40:59.069Z,99681.19
2023-09-03T20:43:25.229Z,99680.38
2023-09-03T20:45:51.407Z,99676.00
2023-09-03T20:48:17.693Z,99664.41
2023-09-03T20:50:43.856Z,99667.94
2023-09-03T20:53:09.984Z,99665.25
2023-09-03T20:55:36.148Z,99671.66
2023-09-03T20:58:02.315Z,99663.59
2023-09-03T21:00:28.537Z,99664.59
2023-09-03T21:02:55.694Z,99670.84
2023-09-03T21:05:21.922Z,99670.84
2023-09-03T21:07:48.093Z,99665.66
2023-09-03T21:10:14.244Z,99660.28
2023-09-03T21:12:40.415Z,99652.19
2023-09-03T21:15:06.606Z,99651.38
2023-09-03T21:17:32.785Z,99658.63
2023-09-03T21:19:59.004Z,99656.75
2023-09-03T21:22:25.125Z,99650.56
2023-09-03T21:24:51.990Z,99653.25
2023-09-03T21:27:18.235Z,99660.47
2023-09-03T21:29:44.364Z,99663.16
2023-09-03T21:32:10.559Z,99667.72
2023-09-03T21:34:36.708Z,99659.63
2023-09-03T21:37:02.874Z,99666.06
2023-09-03T21:39:29.031Z,99670.41
2023-09-03T21:41:55.167Z,99666.06
2023-09-03T21:44:24.229Z,99667.06
2023-09-03T21:46:50.396Z,99665.44
2023-09-03T21:49:16.524Z,99661.69
2023-09-03T21:51:42.652Z,99657.16
2023-09-03T21:54:08.844Z,99657.34
2023-09-03T21:56:34.995Z,99657.34
2023-09-03T21:59:01.153Z,99656.31
2023-09-03T22:01:27.477Z,99655.69
2023-09-03T22:03:53.745Z,99658.38
2023-09-03T22:06:19.892Z,99662.94
2023-09-03T22:08:46.098Z,99656.72
2023-09-03T22:11:12.384Z,99650.53
2023-09-03T22:13:38.637Z,99649.69
2023-09-03T22:16:04.837Z,99655.06
2023-09-03T22:18:34.717Z,99655.06
2023-09-03T22:21:09.059Z,99655.06
2023-09-03T22:23:35.226Z,99655.06
2023-09-03T22:26:01.359Z,99656.06
2023-09-03T22:28:27.519Z,99662.47
2023-09-03T22:30:53.656Z,99661.44
2023-09-03T22:33:19.828Z,99657.09
2023-09-03T22:35:45.994Z,99656.28
2023-09-03T22:38:12.122Z,99664.34
2023-09-03T22:40:38.249Z,99663.50
2023-09-03T22:43:04.500Z,99661.66
2023-09-03T22:45:30.718Z,99673.41
2023-09-03T22:47:57.030Z,99681.47
2023-09-03T22:50:23.249Z,99682.31
2023-09-03T22:52:49.383Z,99676.94
2023-09-03T22:55:15.546Z,99677.97
2023-09-03T22:57:41.714Z,99675.28
2023-09-03T23:00:07.872Z,99673.63
2023-09-03T23:02:34.214Z,99669.28
2023-09-03T23:05:00.471Z,99672.78
2023-09-03T23:07:26.607Z,99664.72
2023-09-03T23:09:52.753Z,99666.59
2023-09-03T23:12:18.961Z,99663.06
2023-09-03T23:14:45.112Z,99664.72
2023-09-03T23:17:11.382Z,99656.66
2023-09-03T23:19:37.526Z,99655.00
2023-09-03T23:22:03.711Z,99648.81
2023-09-03T23:24:29.851Z,99651.50
2023-09-03T23:26:56.016Z,99647.13
2023-09-03T23:29:22.171Z,99653.31
2023-09-03T23:31:48.339Z,99657.88
2023-09-03T23:34:14.492Z,99663.25
2023-09-03T23:36:41.911Z,99671.31
2023-09-03T23:39:08.071Z,99674.00
2023-09-03T23:41:34.259Z,99668.63
2023-09-03T23:44:00.408Z,99672.38
2023-09-03T23:46:26.676Z,99671.31
2023-09-03T23:48:52.948Z,99674.22
2023-09-03T23:51:19.097Z,99674.22
2023-09-03T23:53:45.338Z,99672.56
2023-09-03T23:56:11.666Z,99662.03
2023-09-03T23:58:37.819Z,99656.63
